Time;durP1;ratioP1;P1;durP2;ratioP2;P2;SDS_P1;SDS_P2;PMS_P1;PMS_P2;Temp;Humidity;BMP_temperature;BMP_pressure;BME280_temperature;BME280_humidity;BME280_pressure;Samples;Min_cycle;Max_cycle;Signal;HPM_P1;HPM_P2
2023/05/31 00:00:16;;;;;;;1.38;1.27;;;;;;;18.30;56.78;96777.16;10534260;28;20036;-33
2023/05/31 00:05:16;;;;;;;1.55;1.17;;;;;;;18.38;56.87;96783.09;10529157;28;20051;-33
2023/05/31 00:10:17;;;;;;;1.47;1.37;;;;;;;18.66;56.62;96773.81;10530716;28;20422;-32
2023/05/31 00:15:17;;;;;;;1.58;1.25;;;;;;;18.74;55.85;96767.06;10531460;28;20425;-33
2023/05/31 00:20:18;;;;;;;2.13;1.30;;;;;;;18.54;56.69;96766.19;10524842;28;20044;-33
2023/05/31 00:25:18;;;;;;;1.35;1.25;;;;;;;18.45;56.53;96771.25;10532789;28;20383;-33
2023/05/31 00:30:18;;;;;;;1.85;1.20;;;;;;;18.38;56.41;96767.88;10530844;28;20393;-33
2023/05/31 00:35:19;;;;;;;1.20;1.10;;;;;;;18.35;56.54;96777.16;10529799;28;20047;-32
2023/05/31 00:40:19;;;;;;;1.75;1.30;;;;;;;18.33;56.60;96778.88;10529056;28;20028;-33
2023/05/31 00:45:20;;;;;;;1.58;1.40;;;;;;;18.30;56.45;96772.09;10531647;28;20100;-33
2023/05/31 00:50:20;;;;;;;1.97;1.70;;;;;;;18.28;56.45;96762.75;10531465;28;20372;-32
2023/05/31 00:55:21;;;;;;;1.67;1.48;;;;;;;18.26;56.35;96772.06;10525216;28;20024;-33
2023/05/31 01:00:22;;;;;;;2.63;1.70;;;;;;;18.29;56.51;96769.50;10531102;28;20039;-34
2023/05/31 01:05:22;;;;;;;1.77;1.48;;;;;;;18.31;56.32;96772.94;10531288;28;20394;-32
2023/05/31 01:10:22;;;;;;;2.87;1.80;;;;;;;18.57;56.20;96758.59;10532356;28;20032;-32
2023/05/31 01:15:27;;;;;;;2.13;1.52;;;;;;;18.71;55.30;96759.44;10530126;28;20380;-33
2023/05/31 01:20:33;;;;;;;1.65;1.23;;;;;;;18.49;56.38;96745.09;10533810;28;20050;-33
2023/05/31 01:25:52;;;;;;;2.05;1.63;;;;;;;18.43;55.97;96755.22;10532855;28;20040;-33
2023/05/31 01:30:55;;;;;;;2.17;1.95;;;;;;;18.35;56.03;96749.28;10532470;28;20032;-33
2023/05/31 01:35:55;;;;;;;2.35;1.75;;;;;;;18.33;56.08;96750.97;10536676;28;20032;-33
2023/05/31 01:40:57;;;;;;;1.57;1.40;;;;;;;18.31;56.13;96752.66;10538481;28;20406;-33
2023/05/31 01:45:58;;;;;;;2.05;1.40;;;;;;;18.24;56.20;96739.09;10532560;28;20042;-32
2023/05/31 01:51:01;;;;;;;3.10;1.85;;;;;;;18.29;56.16;96754.31;10536623;28;20386;-33
2023/05/31 01:56:02;;;;;;;2.17;1.50;;;;;;;18.26;56.16;96747.53;10539211;28;20107;-32
2023/05/31 02:01:04;;;;;;;2.30;1.60;;;;;;;18.25;56.02;96748.38;10533210;28;20027;-33
2023/05/31 02:06:05;;;;;;;2.28;1.80;;;;;;;18.29;55.98;96739.09;10539066;28;20026;-32
2023/05/31 02:11:05;;;;;;;2.13;1.52;;;;;;;18.56;55.82;96746.75;10529812;28;20024;-33
2023/05/31 02:16:06;;;;;;;1.90;1.70;;;;;;;18.65;55.21;96734.94;10537024;28;20063;-33
2023/05/31 02:21:06;;;;;;;2.22;1.80;;;;;;;18.52;56.01;96742.53;10535890;28;20042;-33
2023/05/31 02:26:06;;;;;;;2.20;1.60;;;;;;;18.39;55.81;96740.81;10535042;28;20043;-33
2023/05/31 02:31:09;;;;;;;2.30;1.63;;;;;;;18.32;55.81;96737.47;10536557;28;20028;-34
2023/05/31 02:36:12;;;;;;;2.20;1.88;;;;;;;18.25;55.55;96717.16;10528521;28;20027;-33
2023/05/31 02:41:14;;;;;;;2.70;1.52;;;;;;;18.27;55.83;96725.59;10535980;28;20505;-34
2023/05/31 02:46:14;;;;;;;1.88;1.70;;;;;;;18.23;55.75;96734.88;10532064;28;20032;-34
2023/05/31 02:51:15;;;;;;;2.20;1.80;;;;;;;18.23;55.86;96744.16;10508347;28;20024;-33
2023/05/31 02:56:38;;;;;;;2.55;1.90;;;;;;;18.21;55.60;96745.84;10508218;28;20040;-33
2023/05/31 03:02:05;;;;;;;2.10;1.90;;;;;;;18.19;55.93;96742.47;10527747;28;20062;-32
2023/05/31 03:07:25;;;;;;;2.13;1.90;;;;;;;18.25;55.71;96747.56;10535008;28;20039;-32
2023/05/31 03:12:26;;;;;;;2.47;2.07;;;;;;;18.50;55.45;96736.63;10528540;28;20048;-33
2023/05/31 03:17:27;;;;;;;2.08;1.75;;;;;;;18.65;55.20;96739.13;10532740;28;20524;-33
2023/05/31 03:22:27;;;;;;;2.10;1.90;;;;;;;18.47;55.61;96744.22;10524986;28;20034;-33
2023/05/31 03:27:27;;;;;;;2.60;1.70;;;;;;;18.35;55.45;96741.69;10502290;28;20034;-32
2023/05/31 03:32:28;;;;;;;2.60;2.37;;;;;;;18.29;55.36;96749.25;10532186;28;20031;-33
2023/05/31 03:37:28;;;;;;;2.65;2.40;;;;;;;18.27;55.53;96750.94;10522446;28;20035;-33
2023/05/31 03:42:49;;;;;;;2.00;1.80;;;;;;;18.23;55.26;96751.75;10534847;28;20048;-33
2023/05/31 03:47:49;;;;;;;2.13;1.92;;;;;;;18.20;55.60;96739.97;10532045;28;20028;-32
2023/05/31 03:52:50;;;;;;;3.05;2.15;;;;;;;18.20;55.58;96745.03;10532490;28;20084;-33
2023/05/31 03:57:51;;;;;;;2.47;2.00;;;;;;;18.15;55.70;96739.09;10534082;28;20044;-33
2023/05/31 04:02:52;;;;;;;2.67;1.90;;;;;;;18.18;55.44;96745.84;10529505;28;20039;-33
2023/05/31 04:07:52;;;;;;;3.10;2.50;;;;;;;18.16;55.55;96737.41;10533020;28;20034;-33
2023/05/31 04:12:52;;;;;;;2.60;2.20;;;;;;;18.46;55.17;96747.59;10529970;28;20043;-34
2023/05/31 04:17:53;;;;;;;2.60;2.22;;;;;;;18.61;54.81;96745.06;10532182;28;20036;-34
2023/05/31 04:22:55;;;;;;;2.97;2.58;;;;;;;18.43;55.39;96748.44;10531039;28;20042;-32
2023/05/31 04:27:56;;;;;;;4.28;2.80;;;;;;;18.28;55.08;96738.28;10530448;28;20854;-33
2023/05/31 04:32:57;;;;;;;5.28;2.17;;;;;;;18.28;55.27;96755.16;10532027;28;20032;-34
2023/05/31 04:37:59;;;;;;;2.38;2.08;;;;;;;18.25;55.51;96757.69;10529953;28;20482;-33
2023/05/31 04:43:03;;;;;;;2.92;2.63;;;;;;;18.23;55.50;96754.28;10533250;28;20032;-33
2023/05/31 04:48:06;;;;;;;2.57;1.97;;;;;;;18.21;55.46;96756.00;10523493;28;20114;-33
2023/05/31 04:53:07;;;;;;;3.33;2.75;;;;;;;18.17;55.42;96754.31;10532578;28;20331;-32
2023/05/31 04:58:08;;;;;;;2.78;2.55;;;;;;;18.19;55.52;96771.22;10530323;28;20512;-33
2023/05/31 05:03:08;;;;;;;3.05;2.33;;;;;;;18.19;55.63;96757.69;10530111;28;20036;-33
2023/05/31 05:08:09;;;;;;;3.90;2.72;;;;;;;18.24;55.33;96753.47;10531576;28;20032;-33
2023/05/31 05:13:11;;;;;;;3.83;2.30;;;;;;;18.48;55.34;96748.44;10514391;28;20070;-33
2023/05/31 05:18:14;;;;;;;3.70;2.40;;;;;;;18.64;54.17;96760.28;10531131;28;20409;-32
2023/05/31 05:23:15;;;;;;;3.05;2.20;;;;;;;18.48;55.49;96756.03;10527169;28;20032;-33
2023/05/31 05:28:18;;;;;;;3.08;2.78;;;;;;;18.39;55.17;96753.50;10530727;28;20026;-33
2023/05/31 05:33:18;;;;;;;3.25;2.78;;;;;;;18.32;55.08;96754.38;10530218;28;20024;-33
2023/05/31 05:38:18;;;;;;;3.70;2.60;;;;;;;18.28;55.24;96765.28;10495783;28;20386;-33
2023/05/31 05:43:19;;;;;;;4.38;3.13;;;;;;;18.25;55.26;96762.78;10532142;28;20081;-33
2023/05/31 05:48:36;;;;;;;3.85;2.92;;;;;;;18.25;55.62;96762.78;10523731;28;20494;-32
2023/05/31 05:53:37;;;;;;;4.65;3.03;;;;;;;18.24;55.38;96768.69;10530633;28;20418;-33
2023/05/31 05:58:37;;;;;;;4.43;3.47;;;;;;;18.23;55.35;96764.44;10523729;28;20090;-32
2023/05/31 06:04:01;;;;;;;4.57;3.90;;;;;;;18.23;55.52;96764.44;10529330;28;20075;-32
2023/05/31 06:09:01;;;;;;;7.28;5.13;;;;;;;18.27;55.32;96764.47;10537159;28;20501;-33
2023/05/31 06:14:01;;;;;;;4.93;4.03;;;;;;;18.52;55.70;96757.75;10533951;28;20542;-33
2023/05/31 06:19:08;;;;;;;;;;;;;;;18.68;54.53;96761.97;10537468;28;20337;-34
2023/05/31 06:24:08;;;;;;;6.28;4.50;;;;;;;18.52;55.82;96762.81;10537042;28;19955;-33
2023/05/31 06:29:09;;;;;;;6.18;4.28;;;;;;;18.38;55.35;96761.97;10530206;28;20024;-33
2023/05/31 06:34:28;;;;;;;5.32;4.00;;;;;;;18.33;55.16;96756.88;10537719;28;20044;-33
2023/05/31 06:39:29;;;;;;;6.30;4.50;;;;;;;18.31;55.34;96771.25;10527856;28;20060;-34
2023/05/31 06:44:29;;;;;;;5.75;4.13;;;;;;;18.29;55.36;96769.50;10535335;28;20409;-35
2023/05/31 06:49:41;;;;;;;4.68;4.03;;;;;;;18.24;55.41;96756.84;10535706;28;20035;-34
2023/05/31 06:54:51;;;;;;;5.40;4.68;;;;;;;18.27;55.22;96746.72;10528997;28;20490;-33
2023/05/31 06:59:52;;;;;;;6.43;4.43;;;;;;;18.27;55.29;96756.00;10535334;28;20024;-33
2023/05/31 07:04:52;;;;;;;5.97;3.93;;;;;;;18.24;55.42;96753.47;10530070;28;20032;-33
2023/05/31 07:09:53;;;;;;;4.87;4.03;;;;;;;18.27;55.29;96748.41;10530758;28;20059;-33
2023/05/31 07:14:53;;;;;;;4.35;3.95;;;;;;;18.55;55.55;96757.75;10534753;28;20317;-33
2023/05/31 07:19:54;;;;;;;5.72;3.72;;;;;;;18.70;55.05;96747.59;10533592;28;20024;-33
2023/05/31 07:24:54;;;;;;;4.87;4.17;;;;;;;18.60;55.68;96745.91;10535564;28;20512;-34
2023/05/31 07:29:55;;;;;;;5.07;4.30;;;;;;;18.52;55.63;96747.59;10526713;28;20290;-33
2023/05/31 07:34:55;;;;;;;5.00;4.10;;;;;;;18.46;55.45;96743.38;10535638;28;20648;-33
2023/05/31 07:39:56;;;;;;;5.43;4.00;;;;;;;18.40;55.32;96742.53;10528622;28;20042;-33
2023/05/31 07:44:56;;;;;;;5.00;3.97;;;;;;;18.50;55.56;96737.47;10533661;28;20045;-32
2023/05/31 07:49:56;;;;;;;3.97;3.47;;;;;;;18.48;55.54;96726.47;10535736;28;20036;-34
2023/05/31 07:54:57;;;;;;;3.92;2.97;;;;;;;18.47;55.85;96745.06;10529772;28;20039;-33
2023/05/31 07:59:58;;;;;;;2.85;2.55;;;;;;;18.49;57.55;96738.31;10521831;28;20028;-33
2023/05/31 08:05:01;;;;;;;3.67;2.60;;;;;;;18.49;57.22;96717.19;10534226;28;20047;-33
2023/05/31 08:10:02;;;;;;;2.80;2.58;;;;;;;18.54;58.38;96738.31;10525336;28;20039;-33
2023/05/31 08:15:03;;;;;;;5.20;4.00;;;;;;;18.68;57.21;96731.56;10534004;28;20036;-32
2023/05/31 08:20:06;;;;;;;4.20;3.50;;;;;;;18.82;57.09;96717.19;10532518;28;20036;-33
2023/05/31 08:25:07;;;;;;;4.15;3.10;;;;;;;18.76;57.13;96722.25;10532884;28;20514;-34
2023/05/31 08:30:12;;;;;;;2.95;2.65;;;;;;;18.64;57.27;96723.09;10532205;28;20106;-33
2023/05/31 08:35:12;;;;;;;3.78;2.70;;;;;;;18.64;57.69;96712.97;10533113;28;20048;-32
2023/05/31 08:40:12;;;;;;;2.70;2.07;;;;;;;18.59;57.38;96708.75;10526458;28;20101;-33
2023/05/31 08:45:13;;;;;;;3.47;2.63;;;;;;;18.58;56.83;96722.25;10524456;28;20302;-32
2023/05/31 08:50:14;;;;;;;2.23;2.03;;;;;;;18.57;57.20;96723.13;10531830;28;20274;-33
2023/05/31 08:55:15;;;;;;;3.58;2.40;;;;;;;18.56;56.78;96718.84;10524369;28;20076;-33
2023/05/31 09:00:17;;;;;;;3.92;2.70;;;;;;;18.52;56.58;96707.03;10532612;28;20034;-32
2023/05/31 09:05:17;;;;;;;2.55;2.20;;;;;;;18.48;56.85;96707.88;10529537;28;20036;-32
2023/05/31 09:10:19;;;;;;;2.78;2.25;;;;;;;18.52;56.48;96707.91;10531025;28;20031;-33
2023/05/31 09:15:22;;;;;;;3.65;2.88;;;;;;;18.64;57.80;96712.09;10532300;28;20426;-34
2023/05/31 09:20:32;;;;;;;4.20;3.00;;;;;;;18.82;57.00;96707.03;10531188;28;20036;-34
2023/05/31 09:25:46;;;;;;;3.22;2.88;;;;;;;18.82;56.88;96709.56;10532097;28;20059;-33
2023/05/31 09:31:00;;;;;;;4.00;2.70;;;;;;;18.67;57.54;96707.03;10523939;28;20044;-32
2023/05/31 09:36:01;;;;;;;3.60;2.72;;;;;;;18.58;57.20;96701.97;10523775;28;20039;-33
2023/05/31 09:41:31;;;;;;;2.90;2.50;;;;;;;18.57;56.93;96711.25;10539553;28;20482;-33
2023/05/31 09:46:34;;;;;;;2.78;2.50;;;;;;;18.56;57.17;96709.56;10532752;28;20126;-33
2023/05/31 09:51:35;;;;;;;2.75;2.33;;;;;;;18.55;56.84;96701.97;10540151;28;20077;-33
2023/05/31 09:56:37;;;;;;;2.80;2.50;;;;;;;18.54;56.68;96701.13;10531233;28;20043;-33
2023/05/31 10:01:38;;;;;;;3.05;2.55;;;;;;;18.52;56.68;96709.59;10539298;28;20037;-34
2023/05/31 10:06:38;;;;;;;2.58;2.30;;;;;;;18.55;56.87;96699.44;10535872;28;20050;-33
2023/05/31 10:11:46;;;;;;;2.20;2.00;;;;;;;18.55;56.84;96699.44;10535863;28;20016;-33
2023/05/31 10:16:50;;;;;;;3.42;2.85;;;;;;;18.66;57.56;96700.28;10538401;28;20093;-34
2023/05/31 10:21:51;;;;;;;2.80;2.28;;;;;;;18.82;57.22;96684.19;10533658;28;20494;-33
2023/05/31 10:27:10;;;;;;;2.78;2.15;;;;;;;18.83;57.16;96679.09;10538073;28;20547;-33
2023/05/31 10:32:18;;;;;;;2.67;2.33;;;;;;;18.70;57.81;96672.38;10535196;28;20032;-34
2023/05/31 10:37:20;;;;;;;3.22;2.22;;;;;;;18.65;57.71;96683.34;10537878;28;20024;-33
2023/05/31 10:42:38;;;;;;;3.28;2.28;;;;;;;18.61;57.79;96672.41;10530730;28;20085;-33
2023/05/31 10:47:49;;;;;;;2.63;2.10;;;;;;;18.58;57.32;96667.31;10530299;28;20412;-32
2023/05/31 10:52:51;;;;;;;2.45;2.03;;;;;;;18.57;57.06;96674.94;10536946;28;20486;-32
2023/05/31 10:57:54;;;;;;;2.55;2.00;;;;;;;18.58;57.30;96671.56;10527916;28;20024;-33
2023/05/31 11:02:58;;;;;;;2.85;1.92;;;;;;;18.54;56.97;96660.56;10536790;28;20028;-32
2023/05/31 11:07:58;;;;;;;2.50;2.05;;;;;;;18.57;57.02;96662.25;10530474;28;20074;-33
2023/05/31 11:13:03;;;;;;;2.83;2.22;;;;;;;18.57;57.18;96664.78;10536333;28;20059;-31
2023/05/31 11:18:08;;;;;;;2.30;2.10;;;;;;;18.70;58.20;96657.16;10530474;28;20077;-33
2023/05/31 11:23:24;;;;;;;2.63;1.92;;;;;;;18.86;57.45;96663.91;10531473;28;20040;-33
2023/05/31 11:28:25;;;;;;;1.80;1.70;;;;;;;18.82;57.33;96657.13;10535306;28;20040;-34
2023/05/31 11:33:43;;;;;;;3.22;2.20;;;;;;;18.68;58.15;96658.84;10527102;28;20040;-33
2023/05/31 11:38:45;;;;;;;2.35;2.03;;;;;;;18.65;57.81;96658.00;10534993;28;20093;-33
2023/05/31 11:43:45;;;;;;;2.60;2.08;;;;;;;18.62;57.94;96653.78;10531875;28;20441;-33
2023/05/31 11:48:46;;;;;;;1.95;1.73;;;;;;;18.58;57.68;96656.34;10534756;28;20027;-33
2023/05/31 11:53:47;;;;;;;2.60;2.00;;;;;;;18.60;57.30;96655.47;10531177;28;20240;-33
2023/05/31 11:58:48;;;;;;;2.30;1.90;;;;;;;18.56;57.47;96647.88;10530742;28;20090;-33
2023/05/31 12:03:48;;;;;;;2.42;1.90;;;;;;;18.56;57.55;96645.34;10531342;28;20067;-33
2023/05/31 12:08:51;;;;;;;2.13;1.93;;;;;;;18.60;57.42;96641.97;10532036;28;20024;-34
2023/05/31 12:13:55;;;;;;;1.58;1.48;;;;;;;18.58;57.35;96641.13;10533768;28;20042;-33
2023/05/31 12:18:55;;;;;;;2.30;1.88;;;;;;;18.72;58.78;96636.84;10532496;28;20478;-34
2023/05/31 12:23:58;;;;;;;2.30;2.10;;;;;;;18.89;57.77;96642.72;10533760;28;20028;-32
2023/05/31 12:28:58;;;;;;;1.42;1.33;;;;;;;18.87;57.97;96629.22;10532021;28;20514;-33
2023/05/31 12:34:05;;;;;;;2.10;1.90;;;;;;;18.73;58.15;96631.78;10533598;28;20027;-33
2023/05/31 12:39:14;;;;;;;1.75;1.65;;;;;;;18.68;58.22;96623.34;10531512;28;20294;-32
2023/05/31 12:44:21;;;;;;;1.85;1.65;;;;;;;18.65;58.01;96623.34;10522988;28;20451;-33
2023/05/31 12:49:24;;;;;;;1.65;1.52;;;;;;;18.64;57.86;96618.28;10532733;28;20494;-32
2023/05/31 12:54:26;;;;;;;2.60;1.70;;;;;;;18.63;57.86;96624.19;10528222;28;20038;-33
2023/05/31 12:59:28;;;;;;;2.03;1.50;;;;;;;18.62;57.74;96617.44;10508241;28;20048;-33
2023/05/31 13:04:29;;;;;;;2.45;2.03;;;;;;;18.62;58.19;96618.28;10459717;28;20060;-33
2023/05/31 13:09:32;;;;;;;2.05;1.80;;;;;;;18.58;57.93;96608.16;10441309;28;20032;-32
2023/05/31 13:14:32;;;;;;;2.42;1.90;;;;;;;18.63;58.37;96603.91;10452866;28;20037;-33
2023/05/31 13:19:32;;;;;;;1.83;1.57;;;;;;;18.75;59.39;96619.13;10448155;28;20056;-33
2023/05/31 13:24:33;;;;;;;1.97;1.43;;;;;;;18.90;58.20;96601.28;10457455;28;20549;-32
2023/05/31 13:29:33;;;;;;;1.70;1.50;;;;;;;18.89;58.25;96597.06;10449056;28;20290;-32
2023/05/31 13:34:34;;;;;;;1.83;1.67;;;;;;;18.76;58.68;96600.50;10454301;28;20137;-33
2023/05/31 13:39:34;;;;;;;1.65;1.55;;;;;;;18.71;58.51;96595.44;10450930;28;20303;-33
2023/05/31 13:44:34;;;;;;;2.00;1.67;;;;;;;18.68;58.36;96587.00;10455539;28;20458;-33
2023/05/31 13:49:35;;;;;;;2.93;1.60;;;;;;;18.64;58.27;96581.09;10456276;28;20021;-33
2023/05/31 13:54:35;;;;;;;1.70;1.60;;;;;;;18.64;58.11;96585.31;10448070;28;20283;-33
2023/05/31 13:59:36;;;;;;;2.00;1.65;;;;;;;18.64;58.31;96583.63;10455912;28;20399;-33
2023/05/31 14:04:36;;;;;;;1.52;1.30;;;;;;;18.61;57.94;96582.78;10450700;28;20037;-33
2023/05/31 14:09:38;;;;;;;1.70;1.60;;;;;;;18.63;57.43;96583.63;10455642;28;20040;-32
2023/05/31 14:14:39;;;;;;;2.47;1.52;;;;;;;18.63;57.92;96568.41;10452900;28;20291;-33
2023/05/31 14:19:40;;;;;;;1.65;1.40;;;;;;;18.73;59.74;96570.06;10445922;28;20373;-33
2023/05/31 14:24:40;;;;;;;1.50;1.40;;;;;;;18.91;58.60;96581.00;10454405;28;20033;-32
2023/05/31 14:29:40;;;;;;;1.47;1.37;;;;;;;18.87;58.50;96576.81;10449659;28;20060;-34
2023/05/31 14:34:43;;;;;;;1.60;1.47;;;;;;;18.76;58.64;96575.16;10451633;28;20037;-33
2023/05/31 14:39:43;;;;;;;1.30;1.20;;;;;;;18.70;58.52;96565.00;10449559;28;20033;-33
2023/05/31 14:44:44;;;;;;;1.80;1.63;;;;;;;18.68;58.60;96562.47;10450889;28;20118;-33
2023/05/31 14:49:44;;;;;;;1.90;1.38;;;;;;;18.66;58.34;96555.75;10454194;28;20491;-33
2023/05/31 14:54:45;;;;;;;1.23;1.13;;;;;;;18.65;58.62;96559.09;10447881;28;20044;-33
2023/05/31 14:59:45;;;;;;;1.60;1.50;;;;;;;18.66;58.16;96555.75;10452486;28;20037;-33
2023/05/31 15:04:46;;;;;;;1.43;1.20;;;;;;;18.68;58.59;96559.09;10453460;28;20103;-33
2023/05/31 15:09:46;;;;;;;1.80;1.60;;;;;;;18.65;58.49;96559.09;10451872;28;20059;-33
2023/05/31 15:14:48;;;;;;;1.45;1.30;;;;;;;18.66;58.41;96560.81;10453052;28;20299;-32
2023/05/31 15:19:48;;;;;;;1.30;1.20;;;;;;;18.80;58.81;96559.06;10444572;28;20405;-34
2023/05/31 15:24:48;;;;;;;1.57;1.17;;;;;;;18.95;58.58;96556.47;10453133;28;20036;-33
2023/05/31 15:29:49;;;;;;;1.53;1.43;;;;;;;18.92;58.48;96569.16;10449283;28;20033;-33
2023/05/31 15:34:49;;;;;;;1.20;1.10;;;;;;;18.75;58.85;96555.72;10452420;28;20629;-33
2023/05/31 15:39:49;;;;;;;1.70;1.40;;;;;;;18.74;58.87;96564.16;10446066;28;20032;-33
2023/05/31 15:44:50;;;;;;;1.70;1.30;;;;;;;18.70;58.73;96565.88;10449952;28;20870;-34
2023/05/31 15:49:52;;;;;;;2.55;1.40;;;;;;;18.63;58.67;96553.19;10448530;28;20399;-33
2023/05/31 15:54:52;;;;;;;2.55;1.45;;;;;;;18.68;58.78;96564.19;10450063;28;20041;-34
2023/05/31 15:59:54;;;;;;;1.73;1.53;;;;;;;18.68;58.66;96570.09;10451446;28;20033;-32
2023/05/31 16:04:55;;;;;;;1.38;1.23;;;;;;;18.66;58.38;96576.03;10444042;28;20045;-33
2023/05/31 16:09:56;;;;;;;1.73;1.30;;;;;;;18.68;58.20;96574.31;10450910;28;20029;-32
2023/05/31 16:14:59;;;;;;;1.83;1.30;;;;;;;18.66;58.11;96570.97;10447809;28;20040;-33
2023/05/31 16:19:59;;;;;;;1.77;1.40;;;;;;;18.79;59.22;96573.44;10450634;28;20025;-34
2023/05/31 16:24:59;;;;;;;1.80;1.20;;;;;;;18.95;58.94;96567.47;10442269;28;20415;-33
2023/05/31 16:30:00;;;;;;;1.40;1.30;;;;;;;18.91;58.34;96565.78;10450121;28;20056;-33
2023/05/31 16:35:00;;;;;;;1.37;1.20;;;;;;;18.75;58.80;96553.19;10445746;28;20295;-32
2023/05/31 16:40:02;;;;;;;1.33;1.23;;;;;;;18.72;58.79;96560.78;10443314;28;20288;-32
2023/05/31 16:45:03;;;;;;;1.10;1.00;;;;;;;18.69;58.59;96555.72;10449359;28;20033;-33
2023/05/31 16:50:04;;;;;;;1.50;1.20;;;;;;;18.62;58.72;96541.38;10448431;28;20087;-33
2023/05/31 16:55:05;;;;;;;1.40;1.30;;;;;;;18.70;58.59;96565.00;10444914;28;20025;-33
2023/05/31 17:00:06;;;;;;;1.92;1.27;;;;;;;18.64;58.73;96550.66;10447255;28;20032;-33
2023/05/31 17:05:07;;;;;;;2.22;1.17;;;;;;;18.70;58.66;96565.00;10448313;28;20020;-33
2023/05/31 17:10:08;;;;;;;1.38;1.17;;;;;;;18.62;58.92;96561.66;10449203;28;20025;-34
2023/05/31 17:15:09;;;;;;;1.30;1.20;;;;;;;18.69;58.61;96578.53;10440879;28;20071;-33
2023/05/31 17:20:12;;;;;;;1.50;1.40;;;;;;;18.80;59.63;96577.66;10449005;28;20044;-32
2023/05/31 17:25:14;;;;;;;1.67;1.00;;;;;;;18.97;58.56;96585.19;10445295;28;20040;-32
2023/05/31 17:30:15;;;;;;;1.30;1.20;;;;;;;18.95;58.47;96574.22;10449065;28;20053;-33
2023/05/31 17:35:15;;;;;;;1.20;1.00;;;;;;;18.82;58.90;96586.09;10447798;28;20041;-32
2023/05/31 17:40:16;;;;;;;1.40;1.27;;;;;;;18.67;58.85;96570.09;10448285;28;20446;-33
2023/05/31 17:45:16;;;;;;;1.48;1.10;;;;;;;18.68;58.91;96576.88;10447789;28;20483;-33
2023/05/31 17:50:17;;;;;;;1.40;1.30;;;;;;;18.71;58.67;96592.06;10447667;28;20029;-33
2023/05/31 17:55:20;;;;;;;1.65;1.23;;;;;;;18.68;58.51;96589.53;10448468;28;20029;-32
2023/05/31 18:00:20;;;;;;;1.20;1.10;;;;;;;18.67;58.32;96590.41;10445423;28;20546;-34
2023/05/31 18:05:21;;;;;;;1.48;1.20;;;;;;;18.67;58.24;96595.47;10454447;28;20036;-33
2023/05/31 18:10:21;;;;;;;1.33;1.23;;;;;;;18.65;58.09;96603.06;10453887;28;20045;-32
2023/05/31 18:15:22;;;;;;;1.67;1.20;;;;;;;18.67;58.12;96601.38;10455535;28;20043;-33
2023/05/31 18:20:22;;;;;;;1.27;1.13;;;;;;;18.78;59.50;96619.09;10453339;28;20235;-33
2023/05/31 18:25:28;;;;;;;1.10;1.00;;;;;;;18.94;58.77;96630.88;10454758;28;20287;-33
2023/05/31 18:30:32;;;;;;;0.90;0.70;;;;;;;18.96;58.14;96626.63;10446784;28;20445;-33
2023/05/31 18:35:32;;;;;;;0.70;0.70;;;;;;;18.82;58.95;96625.88;10449393;28;20049;-32
2023/05/31 18:40:34;;;;;;;1.20;1.10;;;;;;;18.70;58.67;96630.94;10455543;28;20453;-32
2023/05/31 18:45:34;;;;;;;1.48;1.23;;;;;;;18.70;58.65;96638.56;10446458;28;20480;-32
2023/05/31 18:50:34;;;;;;;1.20;0.90;;;;;;;18.69;58.51;96639.41;10455593;28;20021;-40
2023/05/31 18:55:35;;;;;;;1.90;1.03;;;;;;;18.67;58.22;96647.00;10449973;28;20039;-34
2023/05/31 19:00:35;;;;;;;1.20;1.10;;;;;;;18.68;58.17;96658.00;10453953;28;20041;-33
2023/05/31 19:05:36;;;;;;;0.95;0.88;;;;;;;18.67;58.09;96661.41;10447286;28;20033;-32
2023/05/31 19:10:36;;;;;;;1.10;1.00;;;;;;;18.66;57.93;96658.00;10450302;28;20029;-32
2023/05/31 19:15:36;;;;;;;1.27;1.07;;;;;;;18.65;57.87;96668.13;10454767;28;20104;-32
2023/05/31 19:20:37;;;;;;;1.50;1.30;;;;;;;18.75;60.12;96672.38;10451406;28;20498;-33
2023/05/31 19:25:37;;;;;;;0.88;0.88;;;;;;;18.94;58.70;96679.09;10454149;28;20286;-33
2023/05/31 19:30:40;;;;;;;1.10;1.00;;;;;;;18.87;58.69;96674.88;10452520;28;20512;-33
2023/05/31 19:35:41;;;;;;;1.30;1.13;;;;;;;18.80;58.89;96689.25;10453528;28;20068;-32
2023/05/31 19:40:41;;;;;;;1.35;0.80;;;;;;;18.73;58.72;96686.72;10447419;28;20091;-32
2023/05/31 19:45:42;;;;;;;1.13;1.00;;;;;;;18.69;58.47;96687.59;10443998;28;20415;-33
2023/05/31 19:50:42;;;;;;;0.80;0.80;;;;;;;18.69;58.37;96701.13;10451987;28;20286;-33
2023/05/31 19:55:43;;;;;;;0.80;0.80;;;;;;;18.65;58.31;96699.44;10445353;28;20149;-32
2023/05/31 20:00:44;;;;;;;1.08;0.90;;;;;;;18.68;58.24;96713.78;10451344;28;20120;-33
2023/05/31 20:05:46;;;;;;;1.08;0.98;;;;;;;18.66;57.95;96718.88;10445601;28;20040;-32
2023/05/31 20:10:47;;;;;;;1.33;1.10;;;;;;;18.62;58.03;96713.78;10450779;28;20468;-32
2023/05/31 20:15:47;;;;;;;1.17;1.00;;;;;;;18.64;57.86;96712.97;10449917;28;20112;-33
2023/05/31 20:20:48;;;;;;;1.27;1.10;;;;;;;18.79;59.13;96717.16;10449995;28;20033;-32
2023/05/31 20:25:48;;;;;;;1.10;0.98;;;;;;;18.98;58.56;96723.88;10446069;28;20823;-32
2023/05/31 20:30:51;;;;;;;1.30;1.03;;;;;;;18.94;58.29;96722.22;10449153;28;20064;-32
2023/05/31 20:35:51;;;;;;;1.05;0.95;;;;;;;18.77;58.79;96713.78;10450537;28;20036;-33
2023/05/31 20:40:51;;;;;;;1.03;0.80;;;;;;;18.76;58.51;96722.25;10447554;28;20036;-33
2023/05/31 20:45:53;;;;;;;1.17;0.93;;;;;;;18.71;58.05;96719.72;10449898;28;20055;-33
2023/05/31 20:50:53;;;;;;;1.20;1.10;;;;;;;18.70;58.08;96727.31;10441892;28;20036;-33
2023/05/31 20:55:53;;;;;;;1.20;1.10;;;;;;;18.68;58.01;96721.41;10449891;28;20509;-32
2023/05/31 21:00:54;;;;;;;0.70;0.70;;;;;;;18.65;57.94;96724.78;10445414;28;20118;-32
2023/05/31 21:05:54;;;;;;;0.77;0.77;;;;;;;18.66;58.06;96729.00;10449641;28;20283;-34
2023/05/31 21:10:55;;;;;;;1.20;1.10;;;;;;;18.66;57.87;96723.94;10444281;28;20029;-34
2023/05/31 21:15:55;;;;;;;1.08;1.00;;;;;;;18.66;57.90;96735.78;10442568;28;20548;-33
2023/05/31 21:20:58;;;;;;;1.07;0.97;;;;;;;18.73;58.62;96719.69;10449116;28;20045;-33
2023/05/31 21:25:59;;;;;;;0.95;0.90;;;;;;;18.96;57.95;96725.59;10441019;28;20654;-33
2023/05/31 21:30:59;;;;;;;1.27;1.02;;;;;;;18.90;57.87;96730.66;10449640;28;20032;-32
2023/05/31 21:35:59;;;;;;;1.20;0.90;;;;;;;18.72;58.14;96735.75;10455706;28;20089;-32
2023/05/31 21:41:00;;;;;;;1.17;1.08;;;;;;;18.65;57.48;96739.13;10456914;28;20294;-32
2023/05/31 21:46:00;;;;;;;1.80;1.47;;;;;;;18.58;57.38;96733.22;10455433;28;20037;-33
2023/05/31 21:51:00;;;;;;;1.23;1.10;;;;;;;18.55;57.26;96737.47;10455606;28;20025;-33
2023/05/31 21:56:01;;;;;;;1.53;1.30;;;;;;;18.51;57.18;96730.72;10451429;28;20406;-33
2023/05/31 22:01:01;;;;;;;0.97;0.97;;;;;;;18.50;57.15;96729.03;10448949;28;20103;-32
2023/05/31 22:06:02;;;;;;;1.25;1.10;;;;;;;18.48;57.13;96733.22;10456456;28;20212;-32
2023/05/31 22:11:02;;;;;;;1.92;1.60;;;;;;;18.41;57.06;96726.50;10446724;28;20024;-32
2023/05/31 22:16:03;;;;;;;1.33;0.90;;;;;;;18.47;56.86;96740.00;10455488;28;20020;-33
2023/05/31 22:21:04;;;;;;;1.50;1.30;;;;;;;18.61;57.49;96738.31;10454443;28;20021;-32
2023/05/31 22:26:05;;;;;;;1.48;1.38;;;;;;;18.83;57.01;96729.84;10453889;28;20029;-32
2023/05/31 22:31:05;;;;;;;1.70;1.50;;;;;;;18.85;56.59;96732.38;10455735;28;20071;-33
2023/05/31 22:36:06;;;;;;;1.40;1.23;;;;;;;18.66;57.20;96738.31;10451967;28;20051;-33
2023/05/31 22:41:06;;;;;;;2.33;1.30;;;;;;;18.58;56.63;96737.47;10454329;28;20086;-33
2023/05/31 22:46:07;;;;;;;2.03;1.57;;;;;;;18.50;56.64;96736.63;10446843;28;20154;-34
2023/05/31 22:51:11;;;;;;;1.53;1.17;;;;;;;18.45;56.76;96739.16;10450548;28;20375;-32
2023/05/31 22:56:11;;;;;;;1.80;1.45;;;;;;;18.46;56.62;96745.06;10450056;28;20033;-33
2023/05/31 23:01:11;;;;;;;1.67;1.50;;;;;;;18.43;56.71;96743.38;10447844;28;20036;-32
2023/05/31 23:06:12;;;;;;;1.50;1.40;;;;;;;18.44;56.52;96741.69;10453496;28;20295;-32
2023/05/31 23:11:14;;;;;;;1.80;1.38;;;;;;;18.45;56.61;96740.84;10445237;28;20542;-33
2023/05/31 23:16:18;;;;;;;2.13;1.85;;;;;;;18.37;56.63;96738.31;10453005;28;20037;-33
2023/05/31 23:21:21;;;;;;;1.45;1.27;;;;;;;18.54;56.71;96745.91;10451787;28;20037;-32